Airfield :
LOGIN :

Register | Disclaimer

   EN    FR    IT 

 










Legend :    VFR   Marginal VFR   IFR   Intensive IFR   Very Intensive IFR
Visi :
Ceiling :
>= 8 km
>= 3000ft
5 to 8 km
1000 to 3000 ft
1500m to 5 km
500 to 1000 ft
800 to 1500m
200 to 500 ft
< 800m
< 200 ft
Symbols :   Thunderstorms  Fog  Heavy snow  Heavy precipitations  Wind > 20 kt
SIGMETs :     Misc.  Thunderstorms  Icing  Turbulence  Mountain Waves  Volcanic Ashes






- Airport Elevation : 364 ft
- IATA code : FRA


EDDF - Frankfurt Int.

CURRENT METAR :
  • 231720Z VRB02KT CAVOK 07/04 Q1029 NOSIG

EXPIRED METARs :
  • 231650Z 18002KT 9999 FEW036 08/05 Q1029 NOSIG
  • 231620Z VRB02KT 9999 FEW036 SCT048 10/05 Q1029 NOSIG
  • 231550Z VRB02KT 9999 FEW036 SCT046 11/06 Q1029 NOSIG
  • 231520Z 26004KT 230V300 9999 FEW036 SCT045 12/04 Q1028 NOSIG
  • 231450Z 23004KT 200V270 9999 FEW036 13/03 Q1029 NOSIG
  • 231420Z 26004KT 220V290 9999 FEW034 13/04 Q1028 NOSIG

TAF TAF EDDF
Valid from the 23 at 12:00 until the 24 at 18:00 UTC


231100Z 2312/2418 24005KT 9999 FEW025
BECMG 2312/2315 05004KT
PROB30
TEMPO 2405/2407 4500 BR
BECMG 2410/2413 11005KT



MET'MAP, your aeronautical weather chart ! - Copyright ORBIFLY December 2007 - Disclaimer

ORBIFLY MET'MAP TEAM :

Programming & Development : Alexandra Zaïnal
Concept & original design : Baudouin d'Aumeries
Assistance for programming : Marc-Olivier Méhu
Technical & hardware support : Manuel Goepfert

Contact : metmap@orbifly.com




SOURCES & CREDITS :

   NOAA